首页
METAR-TAF:

METAR-TAF

机场 :

恩吉利國際機場

金夏沙, 刚果

纬度: 04-23S, 经度: 015-26E, 海拔: 309米

当前天气观测

该预报发布于37分钟前的12:00 UTC
风速8节,风向北转西北
温度 30°C
湿度 49%
气压 1017 hPa
能見度: 6000

METAR: FZAA 231200Z 33008KT 6000 NSC 30/18 Q1017 NOSIG

时间: 13:37 (12:37 UTC)

预报

该预报发布于1小时和37分钟前的11:00 UTC
预报有效从23日的 12点(UTC)到 24日的 18点(UTC)
风速6节,风向西转西北
能見度: 6000
少量云层高于1800英尺
短暂存在
从 24日的 03点(UTC)到 24日的 07点(UTC)
能見度: 3500
多云层高于1400英尺
轻雾,

TAF: FZAA 231100Z 2312/2418 29006KT 6000 FEW018 TEMPO 2403/2407 3500 BR BKN014

超过4000个机场的气象观测和天气预报(METAR&TAF报告)。

可查询的气象台以黄色和红色小点在地图上表示。

将鼠标移到小点上方,可查看气象台名称。

然后点击查看天气观测和预报。

如需切换地图:点击带黑十字的绿色按钮放大地图;点击带横线的绿色按钮缩小地图;或者点击绿色箭头查看邻近地区的地图。


METAR-TAF: